Parambu, Brazil
Current Conditions -  °F | °C
As of 8:00 AM on Saturday 22 Nov 2014 (Local Time) from SBJU Reporting Station
Scattered Clouds Scattered Clouds  
Wind Chill: 82°   Ceiling: Unl
Heat Index: 86°   Visibility: 6mi
Dew Point: 70°   Wind: 9mph
Humidity: 66%   Direction: 120°ESE
Pressure: 30.03"   Gusts: NA
Location:  6.21°S, 40.69°W
Report Text: SBJU 221100Z 12008KT 9999 SCT020 28/21 Q1017
Loading
Personal Weather Stations






























Interactive Weather Map New forecast layout! Learn more

10-Day Weather Forecast

Advertisements
Track Severe Weather on mobile